Terminal Aerodrome Forecast
Issued by NWS Jacksonville, FL

Current Version | Previous Version | Text Only | Print | Product List | Glossary On
Versions: 1 2 3 4 5 6 7 8 9 10 11 12 13 14 15 16 17
000
FTUS42 KJAX 251700
TAFJAX
TAF
KJAX 251720Z 2518/2618 24008KT P6SM VCTS SCT040CB BKN080
      TEMPO 2519/2521 VRB15G25KT 3SM TSRA BKN030CB
     FM260000 24004KT P6SM FEW030 SCT250
     FM261700 26008KT P6SM VCTS SCT040CB=

USA.gov is the U.S. government's official web portal to all federal, state and local government web resources and services.